sensor_id;sensor_type;location;lat;lon;timestamp;pressure;altitude;pressure_sealevel;temperature;humidity
55466;BME280;41329;41.594;23.810;2023-04-27T00:01:11;94711.56;;;8.89;63.49
55466;BME280;41329;41.594;23.810;2023-04-27T00:03:37;94704.41;;;8.85;63.46
55466;BME280;41329;41.594;23.810;2023-04-27T00:06:03;94704.78;;;8.83;63.51
55466;BME280;41329;41.594;23.810;2023-04-27T00:08:29;94706.34;;;8.81;63.58
55466;BME280;41329;41.594;23.810;2023-04-27T00:10:57;94706.31;;;8.77;63.43
55466;BME280;41329;41.594;23.810;2023-04-27T00:13:23;94687.22;;;8.65;63.65
55466;BME280;41329;41.594;23.810;2023-04-27T00:15:48;94681.25;;;8.60;63.79
55466;BME280;41329;41.594;23.810;2023-04-27T00:18:13;94707.78;;;8.71;63.59
55466;BME280;41329;41.594;23.810;2023-04-27T00:20:39;94699.47;;;8.68;64.00
55466;BME280;41329;41.594;23.810;2023-04-27T00:23:05;94697.75;;;8.56;64.25
55466;BME280;41329;41.594;23.810;2023-04-27T00:25:31;94696.19;;;8.55;64.13
55466;BME280;41329;41.594;23.810;2023-04-27T00:27:56;94690.94;;;8.47;64.22
55466;BME280;41329;41.594;23.810;2023-04-27T00:30:21;94704.00;;;8.53;64.20
55466;BME280;41329;41.594;23.810;2023-04-27T00:32:47;94700.09;;;8.54;64.31
55466;BME280;41329;41.594;23.810;2023-04-27T00:35:12;94696.94;;;8.56;64.20
55466;BME280;41329;41.594;23.810;2023-04-27T00:37:38;94709.97;;;8.55;63.84
55466;BME280;41329;41.594;23.810;2023-04-27T00:40:04;94705.59;;;8.54;63.91
55466;BME280;41329;41.594;23.810;2023-04-27T00:42:33;94700.88;;;8.55;63.94
55466;BME280;41329;41.594;23.810;2023-04-27T00:44:59;94684.56;;;8.43;63.78
55466;BME280;41329;41.594;23.810;2023-04-27T00:47:24;94698.09;;;8.51;63.91
55466;BME280;41329;41.594;23.810;2023-04-27T00:49:50;94705.16;;;8.49;64.00
55466;BME280;41329;41.594;23.810;2023-04-27T00:52:16;94693.19;;;8.38;63.96
55466;BME280;41329;41.594;23.810;2023-04-27T00:54:42;94716.91;;;8.46;64.08
55466;BME280;41329;41.594;23.810;2023-04-27T00:57:08;94704.59;;;8.40;64.18
55466;BME280;41329;41.594;23.810;2023-04-27T00:59:33;94715.25;;;8.41;64.52
55466;BME280;41329;41.594;23.810;2023-04-27T01:01:59;94707.38;;;8.40;64.31
55466;BME280;41329;41.594;23.810;2023-04-27T01:04:25;94717.28;;;8.44;64.13
55466;BME280;41329;41.594;23.810;2023-04-27T01:06:52;94718.78;;;8.38;64.03
55466;BME280;41329;41.594;23.810;2023-04-27T01:09:18;94715.91;;;8.31;63.68
55466;BME280;41329;41.594;23.810;2023-04-27T01:11:45;94707.13;;;8.22;63.86
55466;BME280;41329;41.594;23.810;2023-04-27T01:14:10;94716.56;;;8.21;64.24
55466;BME280;41329;41.594;23.810;2023-04-27T01:16:36;94732.00;;;8.29;64.44
55466;BME280;41329;41.594;23.810;2023-04-27T01:19:02;94724.72;;;8.18;64.30
55466;BME280;41329;41.594;23.810;2023-04-27T01:21:28;94730.69;;;8.20;64.75
55466;BME280;41329;41.594;23.810;2023-04-27T01:23:54;94728.72;;;8.20;64.73
55466;BME280;41329;41.594;23.810;2023-04-27T01:26:19;94732.28;;;8.21;64.27
55466;BME280;41329;41.594;23.810;2023-04-27T01:28:45;94730.16;;;8.11;64.36
55466;BME280;41329;41.594;23.810;2023-04-27T01:31:11;94722.81;;;7.96;64.22
55466;BME280;41329;41.594;23.810;2023-04-27T01:33:37;94737.09;;;8.01;64.49
55466;BME280;41329;41.594;23.810;2023-04-27T01:36:03;94737.78;;;7.95;64.58
55466;BME280;41329;41.594;23.810;2023-04-27T01:38:30;94743.31;;;7.98;64.89
55466;BME280;41329;41.594;23.810;2023-04-27T01:40:56;94737.59;;;7.84;65.00
55466;BME280;41329;41.594;23.810;2023-04-27T01:43:30;94742.06;;;7.92;65.09
55466;BME280;41329;41.594;23.810;2023-04-27T01:46:07;94737.41;;;7.74;64.95
55466;BME280;41329;41.594;23.810;2023-04-27T01:48:33;94718.81;;;7.67;65.19
55466;BME280;41329;41.594;23.810;2023-04-27T01:50:59;94751.06;;;7.89;65.28
55466;BME280;41329;41.594;23.810;2023-04-27T01:53:24;94753.44;;;7.91;65.54
55466;BME280;41329;41.594;23.810;2023-04-27T01:55:50;94743.16;;;7.88;65.33
55466;BME280;41329;41.594;23.810;2023-04-27T01:58:15;94740.75;;;7.86;65.54
55466;BME280;41329;41.594;23.810;2023-04-27T02:00:41;94757.28;;;7.86;65.54
55466;BME280;41329;41.594;23.810;2023-04-27T02:03:06;94737.41;;;7.74;65.40
55466;BME280;41329;41.594;23.810;2023-04-27T02:05:32;94731.91;;;7.74;65.63
55466;BME280;41329;41.594;23.810;2023-04-27T02:07:57;94725.59;;;7.73;65.49
55466;BME280;41329;41.594;23.810;2023-04-27T02:10:23;94749.03;;;7.86;64.87
55466;BME280;41329;41.594;23.810;2023-04-27T02:12:48;94747.44;;;7.85;64.85
55466;BME280;41329;41.594;23.810;2023-04-27T02:15:14;94737.72;;;7.69;64.86
55466;BME280;41329;41.594;23.810;2023-04-27T02:17:40;94760.22;;;7.74;64.77
55466;BME280;41329;41.594;23.810;2023-04-27T02:20:06;94734.50;;;7.63;65.00
55466;BME280;41329;41.594;23.810;2023-04-27T02:22:32;94756.69;;;7.74;64.77
55466;BME280;41329;41.594;23.810;2023-04-27T02:24:58;94750.34;;;7.70;64.96
55466;BME280;41329;41.594;23.810;2023-04-27T02:27:24;94747.56;;;7.70;65.02
55466;BME280;41329;41.594;23.810;2023-04-27T02:29:49;94760.13;;;7.67;65.29
55466;BME280;41329;41.594;23.810;2023-04-27T02:32:15;94763.47;;;7.57;65.61
55466;BME280;41329;41.594;23.810;2023-04-27T02:34:40;94763.09;;;7.59;65.49
55466;BME280;41329;41.594;23.810;2023-04-27T02:37:05;94762.38;;;7.62;65.65
55466;BME280;41329;41.594;23.810;2023-04-27T02:39:31;94707.44;;;7.24;65.32
55466;BME280;41329;41.594;23.810;2023-04-27T02:41:56;94768.66;;;7.62;65.29
55466;BME280;41329;41.594;23.810;2023-04-27T02:44:22;94767.03;;;7.58;65.38
55466;BME280;41329;41.594;23.810;2023-04-27T02:46:48;94771.66;;;7.54;65.13
55466;BME280;41329;41.594;23.810;2023-04-27T02:49:15;94771.97;;;7.49;64.89
55466;BME280;41329;41.594;23.810;2023-04-27T02:51:40;94758.38;;;7.37;65.22
55466;BME280;41329;41.594;23.810;2023-04-27T02:54:06;94765.41;;;7.34;65.22
55466;BME280;41329;41.594;23.810;2023-04-27T02:56:31;94773.78;;;7.41;65.38
55466;BME280;41329;41.594;23.810;2023-04-27T02:58:56;94784.69;;;7.34;65.42
55466;BME280;41329;41.594;23.810;2023-04-27T03:01:22;94784.22;;;7.32;65.64
55466;BME280;41329;41.594;23.810;2023-04-27T03:03:47;94785.84;;;7.33;65.70
55466;BME280;41329;41.594;23.810;2023-04-27T03:06:13;94776.22;;;7.24;65.61
55466;BME280;41329;41.594;23.810;2023-04-27T03:08:39;94785.75;;;7.30;66.01
55466;BME280;41329;41.594;23.810;2023-04-27T03:11:04;94770.22;;;7.18;65.82
55466;BME280;41329;41.594;23.810;2023-04-27T03:13:30;94797.06;;;7.25;65.52
55466;BME280;41329;41.594;23.810;2023-04-27T03:16:02;94781.94;;;7.15;65.80
55466;BME280;41329;41.594;23.810;2023-04-27T03:18:28;94795.84;;;7.22;65.54
55466;BME280;41329;41.594;23.810;2023-04-27T03:20:53;94786.25;;;7.16;65.61
55466;BME280;41329;41.594;23.810;2023-04-27T03:23:18;94788.66;;;7.18;65.56
55466;BME280;41329;41.594;23.810;2023-04-27T03:25:44;94787.44;;;7.15;65.55
55466;BME280;41329;41.594;23.810;2023-04-27T03:28:09;94797.66;;;7.15;65.82
55466;BME280;41329;41.594;23.810;2023-04-27T03:30:38;94800.41;;;7.15;65.94
55466;BME280;41329;41.594;23.810;2023-04-27T03:33:04;94788.75;;;7.02;66.13
55466;BME280;41329;41.594;23.810;2023-04-27T03:35:29;94803.06;;;7.11;66.30
55466;BME280;41329;41.594;23.810;2023-04-27T03:37:55;94810.09;;;7.09;66.50
55466;BME280;41329;41.594;23.810;2023-04-27T03:40:20;94810.09;;;6.90;66.77
55466;BME280;41329;41.594;23.810;2023-04-27T03:42:46;94813.44;;;6.99;66.70
55466;BME280;41329;41.594;23.810;2023-04-27T03:45:11;94798.00;;;6.94;66.80
55466;BME280;41329;41.594;23.810;2023-04-27T03:47:37;94819.00;;;7.02;66.47
55466;BME280;41329;41.594;23.810;2023-04-27T03:50:03;94824.72;;;6.94;66.38
55466;BME280;41329;41.594;23.810;2023-04-27T03:52:28;94825.84;;;6.93;66.41
55466;BME280;41329;41.594;23.810;2023-04-27T03:54:54;94812.69;;;6.83;66.79
55466;BME280;41329;41.594;23.810;2023-04-27T03:57:19;94836.09;;;6.92;67.00
55466;BME280;41329;41.594;23.810;2023-04-27T03:59:45;94834.56;;;6.95;67.02
55466;BME280;41329;41.594;23.810;2023-04-27T04:02:11;94824.84;;;6.82;66.69
55466;BME280;41329;41.594;23.810;2023-04-27T04:04:36;94845.97;;;6.97;67.09
55466;BME280;41329;41.594;23.810;2023-04-27T04:07:01;94823.28;;;6.81;67.07
55466;BME280;41329;41.594;23.810;2023-04-27T04:09:27;94836.38;;;6.87;67.24
55466;BME280;41329;41.594;23.810;2023-04-27T04:11:52;94856.91;;;6.93;67.17
55466;BME280;41329;41.594;23.810;2023-04-27T04:14:18;94837.16;;;6.88;67.22
55466;BME280;41329;41.594;23.810;2023-04-27T04:16:43;94860.25;;;7.02;66.77
55466;BME280;41329;41.594;23.810;2023-04-27T04:19:08;94859.53;;;7.05;67.24
55466;BME280;41329;41.594;23.810;2023-04-27T04:21:34;94858.38;;;7.06;67.32
55466;BME280;41329;41.594;23.810;2023-04-27T04:23:59;94863.53;;;7.08;67.33
55466;BME280;41329;41.594;23.810;2023-04-27T04:26:25;94865.56;;;7.11;67.18
55466;BME280;41329;41.594;23.810;2023-04-27T04:28:51;94851.00;;;7.10;67.35
55466;BME280;41329;41.594;23.810;2023-04-27T04:31:17;94870.78;;;7.16;67.61
55466;BME280;41329;41.594;23.810;2023-04-27T04:33:42;94865.28;;;7.16;67.64
55466;BME280;41329;41.594;23.810;2023-04-27T04:36:08;94878.00;;;7.24;67.49
55466;BME280;41329;41.594;23.810;2023-04-27T04:38:35;94872.94;;;7.26;67.43
55466;BME280;41329;41.594;23.810;2023-04-27T04:41:00;94869.41;;;7.25;68.10
55466;BME280;41329;41.594;23.810;2023-04-27T04:43:26;94857.59;;;7.25;67.91
55466;BME280;41329;41.594;23.810;2023-04-27T04:45:52;94890.81;;;7.35;67.71
55466;BME280;41329;41.594;23.810;2023-04-27T04:48:18;94876.91;;;7.28;67.94
55466;BME280;41329;41.594;23.810;2023-04-27T04:50:44;94847.81;;;7.08;67.79
55466;BME280;41329;41.594;23.810;2023-04-27T04:53:10;94891.25;;;7.37;67.51
55466;BME280;41329;41.594;23.810;2023-04-27T04:55:35;94877.06;;;7.35;67.78
55466;BME280;41329;41.594;23.810;2023-04-27T04:58:01;94893.22;;;7.37;67.71
55466;BME280;41329;41.594;23.810;2023-04-27T05:00:26;94893.00;;;7.45;68.07
55466;BME280;41329;41.594;23.810;2023-04-27T05:02:52;94899.09;;;7.54;68.20
55466;BME280;41329;41.594;23.810;2023-04-27T05:05:17;94903.50;;;7.59;68.08
55466;BME280;41329;41.594;23.810;2023-04-27T05:07:43;94886.41;;;7.50;68.10
55466;BME280;41329;41.594;23.810;2023-04-27T05:10:08;94905.59;;;7.65;68.51
55466;BME280;41329;41.594;23.810;2023-04-27T05:12:34;94886.97;;;7.59;68.57
55466;BME280;41329;41.594;23.810;2023-04-27T05:14:59;94908.56;;;7.76;68.51
55466;BME280;41329;41.594;23.810;2023-04-27T05:17:25;94910.66;;;7.82;68.71
55466;BME280;41329;41.594;23.810;2023-04-27T05:19:50;94911.31;;;7.76;68.86
55466;BME280;41329;41.594;23.810;2023-04-27T05:22:16;94907.03;;;7.78;68.97
55466;BME280;41329;41.594;23.810;2023-04-27T05:24:41;94910.06;;;7.92;69.09
55466;BME280;41329;41.594;23.810;2023-04-27T05:27:07;94896.06;;;8.01;69.16
55466;BME280;41329;41.594;23.810;2023-04-27T05:29:32;94915.38;;;8.23;68.98
55466;BME280;41329;41.594;23.810;2023-04-27T05:31:58;94909.25;;;8.33;68.64
55466;BME280;41329;41.594;23.810;2023-04-27T05:34:23;94903.06;;;8.40;67.96
55466;BME280;41329;41.594;23.810;2023-04-27T05:36:49;94894.94;;;8.47;67.53
55466;BME280;41329;41.594;23.810;2023-04-27T05:39:14;94899.81;;;8.57;67.92
55466;BME280;41329;41.594;23.810;2023-04-27T05:41:40;94896.28;;;8.56;67.20
55466;BME280;41329;41.594;23.810;2023-04-27T05:44:05;94908.09;;;8.57;67.50
55466;BME280;41329;41.594;23.810;2023-04-27T05:46:31;94895.06;;;8.54;67.20
55466;BME280;41329;41.594;23.810;2023-04-27T05:48:57;94899.59;;;8.43;66.63
55466;BME280;41329;41.594;23.810;2023-04-27T05:51:23;94906.13;;;8.35;66.67
55466;BME280;41329;41.594;23.810;2023-04-27T05:53:49;94910.84;;;8.57;67.13
55466;BME280;41329;41.594;23.810;2023-04-27T05:56:14;94901.66;;;8.72;66.10
55466;BME280;41329;41.594;23.810;2023-04-27T05:58:40;94906.91;;;8.80;66.00
55466;BME280;41329;41.594;23.810;2023-04-27T06:01:06;94889.97;;;8.82;65.91
55466;BME280;41329;41.594;23.810;2023-04-27T06:03:32;94889.22;;;8.85;65.81
55466;BME280;41329;41.594;23.810;2023-04-27T06:05:59;94908.53;;;9.11;64.76
55466;BME280;41329;41.594;23.810;2023-04-27T06:08:25;94920.09;;;9.20;64.58
55466;BME280;41329;41.594;23.810;2023-04-27T06:10:52;94917.28;;;9.16;64.44
55466;BME280;41329;41.594;23.810;2023-04-27T06:13:18;94910.22;;;9.19;64.34
55466;BME280;41329;41.594;23.810;2023-04-27T06:15:44;94924.25;;;9.33;63.95
55466;BME280;41329;41.594;23.810;2023-04-27T06:18:11;94921.66;;;9.47;64.05
55466;BME280;41329;41.594;23.810;2023-04-27T06:20:36;94895.28;;;9.49;63.83
55466;BME280;41329;41.594;23.810;2023-04-27T06:23:02;94913.94;;;9.59;63.96
55466;BME280;41329;41.594;23.810;2023-04-27T06:25:27;94916.38;;;9.64;63.72
55466;BME280;41329;41.594;23.810;2023-04-27T06:27:53;94899.09;;;9.71;63.17
55466;BME280;41329;41.594;23.810;2023-04-27T06:30:19;94882.69;;;9.85;62.99
55466;BME280;41329;41.594;23.810;2023-04-27T06:32:45;94895.22;;;10.08;63.35
55466;BME280;41329;41.594;23.810;2023-04-27T06:35:10;94909.28;;;10.33;63.41
55466;BME280;41329;41.594;23.810;2023-04-27T06:37:36;94906.50;;;10.33;62.51
55466;BME280;41329;41.594;23.810;2023-04-27T07:50:20;94906.66;;;12.90;53.78
55466;BME280;41329;41.594;23.810;2023-04-27T07:52:48;94899.56;;;13.10;49.63
55466;BME280;41329;41.594;23.810;2023-04-27T07:55:14;94906.28;;;13.19;51.33
55466;BME280;41329;41.594;23.810;2023-04-27T07:57:40;94903.06;;;13.45;51.72
55466;BME280;41329;41.594;23.810;2023-04-27T08:00:06;94901.88;;;13.46;50.16
55466;BME280;41329;41.594;23.810;2023-04-27T08:02:33;94907.00;;;13.65;50.42
55466;BME280;41329;41.594;23.810;2023-04-27T08:04:58;94907.78;;;13.66;48.58
55466;BME280;41329;41.594;23.810;2023-04-27T08:07:24;94901.78;;;13.78;48.67
55466;BME280;41329;41.594;23.810;2023-04-27T08:09:50;94906.53;;;13.84;48.92
55466;BME280;41329;41.594;23.810;2023-04-27T08:12:16;94905.66;;;14.01;47.38
55466;BME280;41329;41.594;23.810;2023-04-27T08:14:42;94911.16;;;14.22;49.42
55466;BME280;41329;41.594;23.810;2023-04-27T08:17:07;94905.56;;;14.33;48.39
55466;BME280;41329;41.594;23.810;2023-04-27T08:19:33;94910.38;;;14.18;44.04
55466;BME280;41329;41.594;23.810;2023-04-27T08:21:58;94892.91;;;14.21;46.12
55466;BME280;41329;41.594;23.810;2023-04-27T08:24:24;94902.88;;;14.01;44.89
55466;BME280;41329;41.594;23.810;2023-04-27T08:26:49;94890.13;;;14.18;44.86
55466;BME280;41329;41.594;23.810;2023-04-27T08:29:15;94894.81;;;14.31;44.40
55466;BME280;41329;41.594;23.810;2023-04-27T08:31:40;94885.22;;;14.43;44.88
55466;BME280;41329;41.594;23.810;2023-04-27T08:34:06;94897.09;;;14.50;44.01
55466;BME280;41329;41.594;23.810;2023-04-27T08:36:31;94890.00;;;14.42;43.73
55466;BME280;41329;41.594;23.810;2023-04-27T08:38:56;94893.16;;;14.44;46.47
55466;BME280;41329;41.594;23.810;2023-04-27T08:41:23;94892.84;;;14.32;44.47
55466;BME280;41329;41.594;23.810;2023-04-27T08:43:51;94891.25;;;14.27;44.84
55466;BME280;41329;41.594;23.810;2023-04-27T08:46:21;94881.25;;;14.44;46.68
55466;BME280;41329;41.594;23.810;2023-04-27T08:48:52;94892.25;;;14.61;44.64
55466;BME280;41329;41.594;23.810;2023-04-27T08:51:18;94893.63;;;14.90;46.20
55466;BME280;41329;41.594;23.810;2023-04-27T08:53:55;94883.56;;;15.07;43.93
55466;BME280;41329;41.594;23.810;2023-04-27T08:56:22;94890.91;;;15.31;44.46
55466;BME280;41329;41.594;23.810;2023-04-27T08:58:50;94893.66;;;15.38;43.01
55466;BME280;41329;41.594;23.810;2023-04-27T09:01:15;94879.47;;;15.18;42.56
55466;BME280;41329;41.594;23.810;2023-04-27T09:03:41;94887.88;;;15.11;42.19
55466;BME280;41329;41.594;23.810;2023-04-27T09:06:07;94885.81;;;15.22;41.33
55466;BME280;41329;41.594;23.810;2023-04-27T09:08:47;94890.09;;;15.37;41.62
55466;BME280;41329;41.594;23.810;2023-04-27T09:11:14;94874.09;;;15.41;43.01
55466;BME280;41329;41.594;23.810;2023-04-27T09:13:41;94873.75;;;15.73;44.07
55466;BME280;41329;41.594;23.810;2023-04-27T09:16:11;94884.16;;;15.72;41.69
55466;BME280;41329;41.594;23.810;2023-04-27T09:18:41;94879.56;;;15.55;42.75
55466;BME280;41329;41.594;23.810;2023-04-27T09:21:07;94875.69;;;15.42;43.52
55466;BME280;41329;41.594;23.810;2023-04-27T09:23:35;94860.66;;;15.29;43.51
55466;BME280;41329;41.594;23.810;2023-04-27T09:26:02;94881.28;;;15.39;41.49
55466;BME280;41329;41.594;23.810;2023-04-27T09:28:33;94864.50;;;15.46;43.06
55466;BME280;41329;41.594;23.810;2023-04-27T09:31:00;94877.59;;;15.05;41.94
55466;BME280;41329;41.594;23.810;2023-04-27T09:33:28;94880.38;;;15.05;42.71
55466;BME280;41329;41.594;23.810;2023-04-27T09:35:55;94875.16;;;15.10;43.18
55466;BME280;41329;41.594;23.810;2023-04-27T09:38:22;94860.50;;;15.03;43.19
55466;BME280;41329;41.594;23.810;2023-04-27T09:40:49;94870.91;;;14.99;42.35
55466;BME280;41329;41.594;23.810;2023-04-27T09:43:15;94859.25;;;15.07;43.74
55466;BME280;41329;41.594;23.810;2023-04-27T09:45:41;94860.88;;;15.05;43.84
55466;BME280;41329;41.594;23.810;2023-04-27T09:48:08;94855.22;;;15.15;43.45
55466;BME280;41329;41.594;23.810;2023-04-27T09:50:35;94869.56;;;15.14;42.44
55466;BME280;41329;41.594;23.810;2023-04-27T09:53:04;94861.06;;;14.87;42.12
55466;BME280;41329;41.594;23.810;2023-04-27T09:55:42;94874.91;;;14.98;43.89
55466;BME280;41329;41.594;23.810;2023-04-27T09:58:23;94848.97;;;15.01;42.78
55466;BME280;41329;41.594;23.810;2023-04-27T10:01:20;94869.28;;;15.01;43.70
55466;BME280;41329;41.594;23.810;2023-04-27T10:06:58;94862.66;;;15.29;42.81
55466;BME280;41329;41.594;23.810;2023-04-27T10:09:25;94855.97;;;15.60;42.19
55466;BME280;41329;41.594;23.810;2023-04-27T10:11:53;94851.56;;;15.62;41.96
55466;BME280;41329;41.594;23.810;2023-04-27T10:14:20;94816.06;;;15.66;42.42
55466;BME280;41329;41.594;23.810;2023-04-27T10:16:52;94849.97;;;15.98;41.07
55466;BME280;41329;41.594;23.810;2023-04-27T10:19:23;94843.78;;;16.14;42.54
55466;BME280;41329;41.594;23.810;2023-04-27T10:21:55;94850.06;;;16.51;40.60
55466;BME280;41329;41.594;23.810;2023-04-27T10:24:33;94850.19;;;16.71;38.98
55466;BME280;41329;41.594;23.810;2023-04-27T10:27:02;94840.38;;;16.59;39.35
55466;BME280;41329;41.594;23.810;2023-04-27T10:29:37;94851.81;;;16.68;40.11
55466;BME280;41329;41.594;23.810;2023-04-27T10:32:12;94846.75;;;16.60;40.12
55466;BME280;41329;41.594;23.810;2023-04-27T10:34:38;94846.91;;;16.76;40.83
55466;BME280;41329;41.594;23.810;2023-04-27T10:37:14;94848.50;;;17.23;42.33
55466;BME280;41329;41.594;23.810;2023-04-27T10:39:41;94833.69;;;17.49;39.39
55466;BME280;41329;41.594;23.810;2023-04-27T10:42:07;94840.19;;;17.65;36.93
55466;BME280;41329;41.594;23.810;2023-04-27T10:44:34;94840.78;;;17.96;39.32
55466;BME280;41329;41.594;23.810;2023-04-27T10:47:01;94837.22;;;17.72;36.87
55466;BME280;41329;41.594;23.810;2023-04-27T10:49:28;94840.13;;;17.88;38.01
55466;BME280;41329;41.594;23.810;2023-04-27T10:51:56;94840.19;;;17.65;38.46
55466;BME280;41329;41.594;23.810;2023-04-27T10:54:28;94847.16;;;17.77;37.07
55466;BME280;41329;41.594;23.810;2023-04-27T10:59:29;94851.97;;;17.30;37.63
55466;BME280;41329;41.594;23.810;2023-04-27T11:01:54;94842.31;;;17.58;40.64
55466;BME280;41329;41.594;23.810;2023-04-27T11:04:19;94837.00;;;17.83;37.10
55466;BME280;41329;41.594;23.810;2023-04-27T11:06:45;94829.00;;;17.85;37.49
55466;BME280;41329;41.594;23.810;2023-04-27T11:09:12;94841.53;;;17.77;37.04
55466;BME280;41329;41.594;23.810;2023-04-27T11:11:42;94815.69;;;17.50;36.95
55466;BME280;41329;41.594;23.810;2023-04-27T11:14:08;94837.22;;;17.72;37.83
55466;BME280;41329;41.594;23.810;2023-04-27T11:16:33;94833.38;;;17.86;36.17
55466;BME280;41329;41.594;23.810;2023-04-27T11:19:05;94815.03;;;17.62;37.25
55466;BME280;41329;41.594;23.810;2023-04-27T11:21:31;94836.72;;;17.58;35.87
55466;BME280;41329;41.594;23.810;2023-04-27T11:24:06;94827.13;;;17.78;37.46
55466;BME280;41329;41.594;23.810;2023-04-27T11:26:31;94825.63;;;17.94;36.60
55466;BME280;41329;41.594;23.810;2023-04-27T11:29:08;94836.44;;;18.11;37.26
55466;BME280;41329;41.594;23.810;2023-04-27T11:31:45;94843.28;;;18.10;35.53
55466;BME280;41329;41.594;23.810;2023-04-27T11:34:20;94845.34;;;18.06;35.95
55466;BME280;41329;41.594;23.810;2023-04-27T11:36:58;94834.97;;;18.07;35.03
55466;BME280;41329;41.594;23.810;2023-04-27T11:39:26;94848.38;;;18.15;36.22
55466;BME280;41329;41.594;23.810;2023-04-27T11:41:52;94834.66;;;18.21;36.72
55466;BME280;41329;41.594;23.810;2023-04-27T11:44:24;94832.56;;;18.25;36.79
55466;BME280;41329;41.594;23.810;2023-04-27T11:46:50;94834.78;;;18.14;35.28
55466;BME280;41329;41.594;23.810;2023-04-27T11:49:17;94825.34;;;18.08;35.61
55466;BME280;41329;41.594;23.810;2023-04-27T11:51:44;94826.50;;;17.91;36.86
55466;BME280;41329;41.594;23.810;2023-04-27T11:54:11;94828.25;;;18.20;38.69
55466;BME280;41329;41.594;23.810;2023-04-27T11:56:39;94835.00;;;18.23;36.50
55466;BME280;41329;41.594;23.810;2023-04-27T11:59:05;94829.13;;;18.37;36.94
55466;BME280;41329;41.594;23.810;2023-04-27T12:01:33;94823.50;;;18.56;36.72
55466;BME280;41329;41.594;23.810;2023-04-27T12:04:00;94808.44;;;18.66;37.33
55466;BME280;41329;41.594;23.810;2023-04-27T12:06:27;94822.38;;;18.70;34.68
55466;BME280;41329;41.594;23.810;2023-04-27T12:08:56;94825.53;;;18.36;35.42
55466;BME280;41329;41.594;23.810;2023-04-27T12:11:24;94823.72;;;18.46;35.40
55466;BME280;41329;41.594;23.810;2023-04-27T12:13:50;94820.16;;;18.61;34.48
55466;BME280;41329;41.594;23.810;2023-04-27T12:16:17;94822.13;;;18.80;36.54
55466;BME280;41329;41.594;23.810;2023-04-27T12:18:42;94824.50;;;18.98;34.74
55466;BME280;41329;41.594;23.810;2023-04-27T12:21:07;94814.63;;;19.09;35.73
55466;BME280;41329;41.594;23.810;2023-04-27T12:23:34;94821.56;;;19.37;33.24
55466;BME280;41329;41.594;23.810;2023-04-27T12:26:00;94826.13;;;19.59;33.99
55466;BME280;41329;41.594;23.810;2023-04-27T12:28:26;94809.25;;;19.47;32.17
55466;BME280;41329;41.594;23.810;2023-04-27T12:30:51;94818.47;;;19.47;34.46
55466;BME280;41329;41.594;23.810;2023-04-27T12:33:17;94825.22;;;19.34;34.21
55466;BME280;41329;41.594;23.810;2023-04-27T12:35:42;94822.59;;;19.27;34.59
55466;BME280;41329;41.594;23.810;2023-04-27T12:38:07;94820.28;;;19.06;33.04
55466;BME280;41329;41.594;23.810;2023-04-27T12:40:33;94826.78;;;18.87;33.51
55466;BME280;41329;41.594;23.810;2023-04-27T12:42:59;94832.91;;;18.98;35.07
55466;BME280;41329;41.594;23.810;2023-04-27T12:45:25;94824.94;;;19.12;35.63
55466;BME280;41329;41.594;23.810;2023-04-27T12:47:51;94816.34;;;19.19;35.61
55466;BME280;41329;41.594;23.810;2023-04-27T12:50:17;94831.00;;;18.95;35.93
55466;BME280;41329;41.594;23.810;2023-04-27T12:52:43;94825.66;;;18.84;35.65
55466;BME280;41329;41.594;23.810;2023-04-27T12:55:08;94829.13;;;18.72;36.07
55466;BME280;41329;41.594;23.810;2023-04-27T12:57:34;94819.56;;;18.54;36.03
55466;BME280;41329;41.594;23.810;2023-04-27T12:59:59;94822.31;;;18.38;36.25
55466;BME280;41329;41.594;23.810;2023-04-27T13:02:25;94844.56;;;18.25;36.88
55466;BME280;41329;41.594;23.810;2023-04-27T13:04:51;94847.22;;;18.13;36.92
55466;BME280;41329;41.594;23.810;2023-04-27T13:07:16;94826.91;;;17.69;36.59
55466;BME280;41329;41.594;23.810;2023-04-27T13:09:42;94850.41;;;17.52;37.07
55466;BME280;41329;41.594;23.810;2023-04-27T13:12:07;94842.72;;;17.33;37.90
55466;BME280;41329;41.594;23.810;2023-04-27T13:14:33;94855.81;;;17.40;38.84
55466;BME280;41329;41.594;23.810;2023-04-27T13:16:58;94858.66;;;17.36;40.44
55466;BME280;41329;41.594;23.810;2023-04-27T13:19:24;94862.78;;;17.28;40.65
55466;BME280;41329;41.594;23.810;2023-04-27T13:21:50;94859.53;;;17.10;41.47
55466;BME280;41329;41.594;23.810;2023-04-27T13:24:15;94873.50;;;17.10;42.11
55466;BME280;41329;41.594;23.810;2023-04-27T13:26:42;94874.00;;;16.79;43.30
55466;BME280;41329;41.594;23.810;2023-04-27T13:29:08;94866.41;;;16.53;44.66
55466;BME280;41329;41.594;23.810;2023-04-27T13:31:33;94878.44;;;16.46;45.55
55466;BME280;41329;41.594;23.810;2023-04-27T13:33:59;94892.09;;;16.41;46.23
55466;BME280;41329;41.594;23.810;2023-04-27T13:36:25;94883.25;;;16.12;44.80
55466;BME280;41329;41.594;23.810;2023-04-27T13:38:51;94895.25;;;15.79;47.37
55466;BME280;41329;41.594;23.810;2023-04-27T13:41:17;94902.22;;;15.57;47.88
55466;BME280;41329;41.594;23.810;2023-04-27T13:43:42;94905.47;;;15.52;48.96
55466;BME280;41329;41.594;23.810;2023-04-27T13:46:08;94911.91;;;15.46;48.61
55466;BME280;41329;41.594;23.810;2023-04-27T13:48:33;94922.94;;;15.09;48.14
55466;BME280;41329;41.594;23.810;2023-04-27T13:50:59;94927.47;;;14.89;48.98
55466;BME280;41329;41.594;23.810;2023-04-27T13:53:25;94914.53;;;14.65;49.82
55466;BME280;41329;41.594;23.810;2023-04-27T13:55:55;94943.03;;;14.83;50.01
55466;BME280;41329;41.594;23.810;2023-04-27T13:58:21;94945.09;;;14.72;50.00
55466;BME280;41329;41.594;23.810;2023-04-27T14:00:46;94950.81;;;14.40;49.75
55466;BME280;41329;41.594;23.810;2023-04-27T14:03:14;94945.03;;;14.03;51.96
55466;BME280;41329;41.594;23.810;2023-04-27T14:05:41;94955.75;;;13.94;52.21
55466;BME280;41329;41.594;23.810;2023-04-27T14:08:06;94945.88;;;13.72;52.69